sensor_id;sensor_type;location;lat;lon;timestamp;temperature;humidity
16315;DHT22;8266;52.150;4.768;2023-01-16T00:01:42;7.00;99.90
16315;DHT22;8266;52.150;4.768;2023-01-16T00:04:09;6.90;99.90
16315;DHT22;8266;52.150;4.768;2023-01-16T00:06:36;6.90;99.90
16315;DHT22;8266;52.150;4.768;2023-01-16T00:09:04;6.90;99.90
16315;DHT22;8266;52.150;4.768;2023-01-16T00:11:32;6.90;99.90
16315;DHT22;8266;52.150;4.768;2023-01-16T00:13:59;6.90;99.90
16315;DHT22;8266;52.150;4.768;2023-01-16T00:16:26;6.80;99.90
16315;DHT22;8266;52.150;4.768;2023-01-16T00:18:54;6.70;99.90
16315;DHT22;8266;52.150;4.768;2023-01-16T00:21:21;6.70;99.90
16315;DHT22;8266;52.150;4.768;2023-01-16T00:23:51;6.70;99.90
16315;DHT22;8266;52.150;4.768;2023-01-16T00:26:20;6.60;99.90
16315;DHT22;8266;52.150;4.768;2023-01-16T00:28:47;6.60;99.90
16315;DHT22;8266;52.150;4.768;2023-01-16T00:31:14;6.60;99.90
16315;DHT22;8266;52.150;4.768;2023-01-16T00:33:41;6.50;99.90
16315;DHT22;8266;52.150;4.768;2023-01-16T00:36:09;6.50;99.90
16315;DHT22;8266;52.150;4.768;2023-01-16T00:38:36;6.50;99.90
16315;DHT22;8266;52.150;4.768;2023-01-16T00:41:03;6.50;99.90
16315;DHT22;8266;52.150;4.768;2023-01-16T00:43:32;6.40;99.90
16315;DHT22;8266;52.150;4.768;2023-01-16T00:45:59;6.40;99.90
16315;DHT22;8266;52.150;4.768;2023-01-16T00:48:26;6.40;99.90
16315;DHT22;8266;52.150;4.768;2023-01-16T00:50:53;6.40;99.90
16315;DHT22;8266;52.150;4.768;2023-01-16T00:53:20;6.40;99.90
16315;DHT22;8266;52.150;4.768;2023-01-16T00:55:47;6.40;99.90
16315;DHT22;8266;52.150;4.768;2023-01-16T00:58:16;6.30;99.90
16315;DHT22;8266;52.150;4.768;2023-01-16T01:00:44;6.30;99.90
16315;DHT22;8266;52.150;4.768;2023-01-16T01:03:11;6.30;99.90
16315;DHT22;8266;52.150;4.768;2023-01-16T01:05:38;6.30;99.90
16315;DHT22;8266;52.150;4.768;2023-01-16T01:08:06;6.30;99.90
16315;DHT22;8266;52.150;4.768;2023-01-16T01:10:35;6.30;99.90
16315;DHT22;8266;52.150;4.768;2023-01-16T01:13:03;6.30;99.90
16315;DHT22;8266;52.150;4.768;2023-01-16T01:15:30;6.30;99.90
16315;DHT22;8266;52.150;4.768;2023-01-16T01:17:58;6.30;99.90
16315;DHT22;8266;52.150;4.768;2023-01-16T01:20:25;6.30;99.90
16315;DHT22;8266;52.150;4.768;2023-01-16T01:22:52;6.30;99.90
16315;DHT22;8266;52.150;4.768;2023-01-16T01:25:19;6.30;99.90
16315;DHT22;8266;52.150;4.768;2023-01-16T01:27:46;6.30;99.90
16315;DHT22;8266;52.150;4.768;2023-01-16T01:30:14;6.30;99.90
16315;DHT22;8266;52.150;4.768;2023-01-16T01:32:41;6.30;99.90
16315;DHT22;8266;52.150;4.768;2023-01-16T01:35:09;6.30;99.90
16315;DHT22;8266;52.150;4.768;2023-01-16T01:37:36;6.30;99.90
16315;DHT22;8266;52.150;4.768;2023-01-16T01:40:05;6.30;99.90
16315;DHT22;8266;52.150;4.768;2023-01-16T01:42:36;6.30;99.90
16315;DHT22;8266;52.150;4.768;2023-01-16T01:45:15;6.30;99.90
16315;DHT22;8266;52.150;4.768;2023-01-16T01:47:47;6.30;99.90
16315;DHT22;8266;52.150;4.768;2023-01-16T01:50:24;6.30;99.90
16315;DHT22;8266;52.150;4.768;2023-01-16T01:52:54;6.30;99.90
16315;DHT22;8266;52.150;4.768;2023-01-16T01:55:24;6.30;99.90
16315;DHT22;8266;52.150;4.768;2023-01-16T01:57:53;6.30;99.90
16315;DHT22;8266;52.150;4.768;2023-01-16T02:00:24;6.30;99.90
16315;DHT22;8266;52.150;4.768;2023-01-16T02:03:06;6.30;99.90
16315;DHT22;8266;52.150;4.768;2023-01-16T02:05:38;6.20;99.90
16315;DHT22;8266;52.150;4.768;2023-01-16T02:08:12;6.20;99.90
16315;DHT22;8266;52.150;4.768;2023-01-16T02:10:43;6.30;99.90
16315;DHT22;8266;52.150;4.768;2023-01-16T02:13:12;6.20;99.90
16315;DHT22;8266;52.150;4.768;2023-01-16T02:15:39;6.20;99.90
16315;DHT22;8266;52.150;4.768;2023-01-16T02:18:26;6.20;99.90
16315;DHT22;8266;52.150;4.768;2023-01-16T02:21:25;6.20;99.90
16315;DHT22;8266;52.150;4.768;2023-01-16T02:27:14;6.20;99.90
16315;DHT22;8266;52.150;4.768;2023-01-16T02:30:07;6.20;99.90
16315;DHT22;8266;52.150;4.768;2023-01-16T02:33:00;6.20;99.90
16315;DHT22;8266;52.150;4.768;2023-01-16T02:35:44;6.20;99.90
16315;DHT22;8266;52.150;4.768;2023-01-16T02:38:20;6.20;99.90
16315;DHT22;8266;52.150;4.768;2023-01-16T02:40:56;6.30;99.90
16315;DHT22;8266;52.150;4.768;2023-01-16T02:43:32;6.30;99.90
16315;DHT22;8266;52.150;4.768;2023-01-16T02:46:06;6.20;99.90
16315;DHT22;8266;52.150;4.768;2023-01-16T02:48:39;6.20;99.90
16315;DHT22;8266;52.150;4.768;2023-01-16T02:51:14;6.30;99.90
16315;DHT22;8266;52.150;4.768;2023-01-16T02:53:48;6.20;99.90
16315;DHT22;8266;52.150;4.768;2023-01-16T02:56:19;6.20;99.90
16315;DHT22;8266;52.150;4.768;2023-01-16T02:58:49;6.20;99.90
16315;DHT22;8266;52.150;4.768;2023-01-16T03:01:18;6.20;99.90
16315;DHT22;8266;52.150;4.768;2023-01-16T03:03:50;6.20;99.90
16315;DHT22;8266;52.150;4.768;2023-01-16T03:06:30;6.20;99.90
16315;DHT22;8266;52.150;4.768;2023-01-16T03:09:19;6.20;99.90
16315;DHT22;8266;52.150;4.768;2023-01-16T03:12:00;6.20;99.90
16315;DHT22;8266;52.150;4.768;2023-01-16T03:14:36;6.20;99.90
16315;DHT22;8266;52.150;4.768;2023-01-16T03:17:13;6.20;99.90
16315;DHT22;8266;52.150;4.768;2023-01-16T03:19:53;6.10;99.90
16315;DHT22;8266;52.150;4.768;2023-01-16T03:22:28;6.10;99.90
16315;DHT22;8266;52.150;4.768;2023-01-16T03:25:12;6.10;99.90
16315;DHT22;8266;52.150;4.768;2023-01-16T03:27:52;6.10;99.90
16315;DHT22;8266;52.150;4.768;2023-01-16T03:30:26;6.10;99.90
16315;DHT22;8266;52.150;4.768;2023-01-16T03:32:59;6.00;99.90
16315;DHT22;8266;52.150;4.768;2023-01-16T03:35:29;6.00;99.90
16315;DHT22;8266;52.150;4.768;2023-01-16T03:38:01;6.10;99.90
16315;DHT22;8266;52.150;4.768;2023-01-16T03:40:33;6.00;99.90
16315;DHT22;8266;52.150;4.768;2023-01-16T03:43:05;6.00;99.90
16315;DHT22;8266;52.150;4.768;2023-01-16T03:45:38;6.10;99.90
16315;DHT22;8266;52.150;4.768;2023-01-16T03:48:09;6.00;99.90
16315;DHT22;8266;52.150;4.768;2023-01-16T03:50:42;6.00;99.90
16315;DHT22;8266;52.150;4.768;2023-01-16T03:53:13;6.00;99.90
16315;DHT22;8266;52.150;4.768;2023-01-16T03:55:44;6.00;99.90
16315;DHT22;8266;52.150;4.768;2023-01-16T03:58:16;6.00;99.90
16315;DHT22;8266;52.150;4.768;2023-01-16T04:00:48;6.00;99.90
16315;DHT22;8266;52.150;4.768;2023-01-16T04:03:21;6.00;99.90
16315;DHT22;8266;52.150;4.768;2023-01-16T04:05:55;6.00;99.90
16315;DHT22;8266;52.150;4.768;2023-01-16T04:08:28;6.00;99.90
16315;DHT22;8266;52.150;4.768;2023-01-16T04:10:58;6.00;99.90
16315;DHT22;8266;52.150;4.768;2023-01-16T04:13:30;6.00;99.90
16315;DHT22;8266;52.150;4.768;2023-01-16T04:16:00;6.00;99.90
16315;DHT22;8266;52.150;4.768;2023-01-16T04:18:31;6.00;99.90
16315;DHT22;8266;52.150;4.768;2023-01-16T04:21:02;6.00;99.90
16315;DHT22;8266;52.150;4.768;2023-01-16T04:23:29;6.00;99.90
16315;DHT22;8266;52.150;4.768;2023-01-16T04:25:56;6.00;99.90
16315;DHT22;8266;52.150;4.768;2023-01-16T04:28:23;5.90;99.90
16315;DHT22;8266;52.150;4.768;2023-01-16T04:30:50;6.00;99.90
16315;DHT22;8266;52.150;4.768;2023-01-16T04:33:17;6.00;99.90
16315;DHT22;8266;52.150;4.768;2023-01-16T04:35:44;5.90;99.90
16315;DHT22;8266;52.150;4.768;2023-01-16T04:38:12;6.00;99.90
16315;DHT22;8266;52.150;4.768;2023-01-16T04:40:39;5.90;99.90
16315;DHT22;8266;52.150;4.768;2023-01-16T04:43:06;5.90;99.90
16315;DHT22;8266;52.150;4.768;2023-01-16T04:45:33;5.90;99.90
16315;DHT22;8266;52.150;4.768;2023-01-16T04:48:00;6.00;99.90
16315;DHT22;8266;52.150;4.768;2023-01-16T04:50:27;6.00;99.90
16315;DHT22;8266;52.150;4.768;2023-01-16T04:52:54;6.00;99.90
16315;DHT22;8266;52.150;4.768;2023-01-16T04:55:22;5.90;99.90
16315;DHT22;8266;52.150;4.768;2023-01-16T04:57:49;6.00;99.90
16315;DHT22;8266;52.150;4.768;2023-01-16T05:00:17;5.90;99.90
16315;DHT22;8266;52.150;4.768;2023-01-16T05:02:44;5.90;99.90
16315;DHT22;8266;52.150;4.768;2023-01-16T05:05:11;6.00;99.90
16315;DHT22;8266;52.150;4.768;2023-01-16T05:07:38;6.00;99.90
16315;DHT22;8266;52.150;4.768;2023-01-16T05:10:06;6.00;99.90
16315;DHT22;8266;52.150;4.768;2023-01-16T05:12:34;5.90;99.90
16315;DHT22;8266;52.150;4.768;2023-01-16T05:15:02;6.00;99.90
16315;DHT22;8266;52.150;4.768;2023-01-16T05:17:28;6.00;99.90
16315;DHT22;8266;52.150;4.768;2023-01-16T05:19:55;6.00;99.90
16315;DHT22;8266;52.150;4.768;2023-01-16T05:22:22;6.00;99.90
16315;DHT22;8266;52.150;4.768;2023-01-16T05:24:49;6.00;99.90
16315;DHT22;8266;52.150;4.768;2023-01-16T05:27:16;6.00;99.90
16315;DHT22;8266;52.150;4.768;2023-01-16T05:29:44;6.00;99.90
16315;DHT22;8266;52.150;4.768;2023-01-16T05:32:11;5.90;99.90
16315;DHT22;8266;52.150;4.768;2023-01-16T05:34:38;6.00;99.90
16315;DHT22;8266;52.150;4.768;2023-01-16T05:37:06;6.00;99.90
16315;DHT22;8266;52.150;4.768;2023-01-16T05:39:32;6.10;99.90
16315;DHT22;8266;52.150;4.768;2023-01-16T05:41:59;6.10;99.90
16315;DHT22;8266;52.150;4.768;2023-01-16T05:44:26;6.10;99.90
16315;DHT22;8266;52.150;4.768;2023-01-16T05:46:55;6.20;99.90
16315;DHT22;8266;52.150;4.768;2023-01-16T05:49:22;6.20;99.90
16315;DHT22;8266;52.150;4.768;2023-01-16T05:51:49;6.20;99.90
16315;DHT22;8266;52.150;4.768;2023-01-16T05:54:15;6.30;99.90
16315;DHT22;8266;52.150;4.768;2023-01-16T05:56:42;6.30;99.90
16315;DHT22;8266;52.150;4.768;2023-01-16T05:59:09;6.30;99.90
16315;DHT22;8266;52.150;4.768;2023-01-16T06:01:36;6.40;99.90
16315;DHT22;8266;52.150;4.768;2023-01-16T06:04:05;6.40;99.90
16315;DHT22;8266;52.150;4.768;2023-01-16T06:06:32;6.40;99.90
16315;DHT22;8266;52.150;4.768;2023-01-16T06:08:59;6.40;99.90
16315;DHT22;8266;52.150;4.768;2023-01-16T06:11:26;6.40;99.90
16315;DHT22;8266;52.150;4.768;2023-01-16T06:13:52;6.50;99.90
16315;DHT22;8266;52.150;4.768;2023-01-16T06:16:19;6.50;99.90
16315;DHT22;8266;52.150;4.768;2023-01-16T06:18:48;6.50;99.90
16315;DHT22;8266;52.150;4.768;2023-01-16T06:21:17;6.50;99.90
16315;DHT22;8266;52.150;4.768;2023-01-16T06:23:43;6.60;99.90
16315;DHT22;8266;52.150;4.768;2023-01-16T06:26:10;6.60;99.90
16315;DHT22;8266;52.150;4.768;2023-01-16T06:28:41;6.60;99.90
16315;DHT22;8266;52.150;4.768;2023-01-16T06:31:08;6.60;99.90
16315;DHT22;8266;52.150;4.768;2023-01-16T06:33:35;6.60;99.90
16315;DHT22;8266;52.150;4.768;2023-01-16T06:36:02;6.60;99.90
16315;DHT22;8266;52.150;4.768;2023-01-16T06:38:31;6.60;99.90
16315;DHT22;8266;52.150;4.768;2023-01-16T06:40:58;6.60;99.90
16315;DHT22;8266;52.150;4.768;2023-01-16T06:43:26;6.60;99.90
16315;DHT22;8266;52.150;4.768;2023-01-16T06:45:53;6.60;99.90
16315;DHT22;8266;52.150;4.768;2023-01-16T06:48:20;6.60;99.90
16315;DHT22;8266;52.150;4.768;2023-01-16T06:50:48;6.60;99.90
16315;DHT22;8266;52.150;4.768;2023-01-16T06:53:15;6.60;99.90
16315;DHT22;8266;52.150;4.768;2023-01-16T06:55:43;6.60;99.90
16315;DHT22;8266;52.150;4.768;2023-01-16T06:58:10;6.60;99.90
16315;DHT22;8266;52.150;4.768;2023-01-16T07:00:39;6.70;99.90
16315;DHT22;8266;52.150;4.768;2023-01-16T07:03:06;6.60;99.90
16315;DHT22;8266;52.150;4.768;2023-01-16T07:05:34;6.60;99.90
16315;DHT22;8266;52.150;4.768;2023-01-16T07:08:01;6.70;99.90
16315;DHT22;8266;52.150;4.768;2023-01-16T07:10:28;6.50;99.90
16315;DHT22;8266;52.150;4.768;2023-01-16T07:12:56;6.60;99.90
16315;DHT22;8266;52.150;4.768;2023-01-16T07:15:23;6.60;99.90
16315;DHT22;8266;52.150;4.768;2023-01-16T07:18:12;6.60;99.90
16315;DHT22;8266;52.150;4.768;2023-01-16T07:20:58;6.60;99.90
16315;DHT22;8266;52.150;4.768;2023-01-16T07:23:47;6.60;99.90
16315;DHT22;8266;52.150;4.768;2023-01-16T07:26:16;6.60;99.90
16315;DHT22;8266;52.150;4.768;2023-01-16T07:28:47;6.60;99.90
16315;DHT22;8266;52.150;4.768;2023-01-16T07:31:15;6.60;99.90
16315;DHT22;8266;52.150;4.768;2023-01-16T07:33:42;6.60;99.90
16315;DHT22;8266;52.150;4.768;2023-01-16T07:36:09;6.60;99.90
16315;DHT22;8266;52.150;4.768;2023-01-16T07:38:36;6.60;99.90
16315;DHT22;8266;52.150;4.768;2023-01-16T07:41:03;6.60;99.90
16315;DHT22;8266;52.150;4.768;2023-01-16T07:43:31;6.60;99.90
16315;DHT22;8266;52.150;4.768;2023-01-16T07:45:59;6.60;99.90
16315;DHT22;8266;52.150;4.768;2023-01-16T07:48:26;6.60;99.90
16315;DHT22;8266;52.150;4.768;2023-01-16T07:50:54;6.60;99.90
16315;DHT22;8266;52.150;4.768;2023-01-16T07:53:23;6.50;99.90
16315;DHT22;8266;52.150;4.768;2023-01-16T07:55:52;6.60;99.90
16315;DHT22;8266;52.150;4.768;2023-01-16T07:58:19;6.50;99.90
16315;DHT22;8266;52.150;4.768;2023-01-16T08:00:48;6.50;99.90
16315;DHT22;8266;52.150;4.768;2023-01-16T08:03:16;6.50;99.90
16315;DHT22;8266;52.150;4.768;2023-01-16T08:05:43;6.50;99.90
16315;DHT22;8266;52.150;4.768;2023-01-16T08:08:10;6.60;99.90
16315;DHT22;8266;52.150;4.768;2023-01-16T08:10:37;6.60;99.90
16315;DHT22;8266;52.150;4.768;2023-01-16T08:13:05;6.60;99.90
16315;DHT22;8266;52.150;4.768;2023-01-16T08:15:32;6.50;99.90
16315;DHT22;8266;52.150;4.768;2023-01-16T08:17:59;6.60;99.90
16315;DHT22;8266;52.150;4.768;2023-01-16T08:20:27;6.60;99.90
16315;DHT22;8266;52.150;4.768;2023-01-16T08:22:54;6.60;99.90
16315;DHT22;8266;52.150;4.768;2023-01-16T08:25:24;6.60;99.90
16315;DHT22;8266;52.150;4.768;2023-01-16T08:27:51;6.60;99.90
16315;DHT22;8266;52.150;4.768;2023-01-16T08:30:18;6.60;99.90
16315;DHT22;8266;52.150;4.768;2023-01-16T08:32:45;6.50;99.90
16315;DHT22;8266;52.150;4.768;2023-01-16T08:35:12;6.60;99.90
16315;DHT22;8266;52.150;4.768;2023-01-16T08:37:47;6.60;99.90
16315;DHT22;8266;52.150;4.768;2023-01-16T08:40:15;6.60;99.90
16315;DHT22;8266;52.150;4.768;2023-01-16T08:42:42;6.60;99.90
16315;DHT22;8266;52.150;4.768;2023-01-16T08:45:26;6.60;99.90
16315;DHT22;8266;52.150;4.768;2023-01-16T08:48:11;6.60;99.90
16315;DHT22;8266;52.150;4.768;2023-01-16T08:50:56;6.70;99.90
16315;DHT22;8266;52.150;4.768;2023-01-16T08:53:42;6.60;99.90
16315;DHT22;8266;52.150;4.768;2023-01-16T08:56:10;6.60;99.90
16315;DHT22;8266;52.150;4.768;2023-01-16T08:58:36;6.60;99.90
16315;DHT22;8266;52.150;4.768;2023-01-16T09:01:04;6.60;99.90
16315;DHT22;8266;52.150;4.768;2023-01-16T09:03:31;6.60;99.90
16315;DHT22;8266;52.150;4.768;2023-01-16T09:05:59;6.60;99.90
16315;DHT22;8266;52.150;4.768;2023-01-16T09:08:26;6.60;99.90
16315;DHT22;8266;52.150;4.768;2023-01-16T09:10:55;6.60;99.90
16315;DHT22;8266;52.150;4.768;2023-01-16T09:13:51;6.70;99.90
16315;DHT22;8266;52.150;4.768;2023-01-16T09:16:19;6.70;99.90
16315;DHT22;8266;52.150;4.768;2023-01-16T09:18:46;6.70;99.90
16315;DHT22;8266;52.150;4.768;2023-01-16T09:21:14;6.70;99.90
16315;DHT22;8266;52.150;4.768;2023-01-16T09:23:44;6.70;99.90
16315;DHT22;8266;52.150;4.768;2023-01-16T09:26:12;6.70;99.90
16315;DHT22;8266;52.150;4.768;2023-01-16T09:28:39;6.70;99.90
16315;DHT22;8266;52.150;4.768;2023-01-16T09:31:07;6.80;99.90
16315;DHT22;8266;52.150;4.768;2023-01-16T09:33:34;6.80;99.90
16315;DHT22;8266;52.150;4.768;2023-01-16T09:36:02;6.80;99.90
16315;DHT22;8266;52.150;4.768;2023-01-16T09:38:29;6.80;99.90
16315;DHT22;8266;52.150;4.768;2023-01-16T09:40:58;6.80;99.90
16315;DHT22;8266;52.150;4.768;2023-01-16T09:43:35;6.80;99.90
16315;DHT22;8266;52.150;4.768;2023-01-16T09:46:04;6.80;99.90
16315;DHT22;8266;52.150;4.768;2023-01-16T09:48:33;6.80;99.90
16315;DHT22;8266;52.150;4.768;2023-01-16T09:51:04;6.90;99.90
16315;DHT22;8266;52.150;4.768;2023-01-16T09:53:37;6.90;99.90
16315;DHT22;8266;52.150;4.768;2023-01-16T09:56:26;6.90;99.90
16315;DHT22;8266;52.150;4.768;2023-01-16T09:59:23;6.90;99.90
16315;DHT22;8266;52.150;4.768;2023-01-16T10:01:56;6.90;99.90
16315;DHT22;8266;52.150;4.768;2023-01-16T10:04:26;6.90;99.90
16315;DHT22;8266;52.150;4.768;2023-01-16T10:09:51;6.90;99.90
16315;DHT22;8266;52.150;4.768;2023-01-16T10:12:22;7.00;99.90
16315;DHT22;8266;52.150;4.768;2023-01-16T10:15:01;6.90;99.90
16315;DHT22;8266;52.150;4.768;2023-01-16T10:17:37;6.90;99.90
16315;DHT22;8266;52.150;4.768;2023-01-16T10:20:27;6.90;99.90
16315;DHT22;8266;52.150;4.768;2023-01-16T10:23:07;6.90;99.90
16315;DHT22;8266;52.150;4.768;2023-01-16T10:25:43;6.90;99.90
16315;DHT22;8266;52.150;4.768;2023-01-16T10:28:28;7.00;99.90
16315;DHT22;8266;52.150;4.768;2023-01-16T10:31:03;6.90;99.90
16315;DHT22;8266;52.150;4.768;2023-01-16T10:33:37;6.90;99.90
16315;DHT22;8266;52.150;4.768;2023-01-16T10:36:09;6.90;99.90
16315;DHT22;8266;52.150;4.768;2023-01-16T10:38:40;6.90;99.90
16315;DHT22;8266;52.150;4.768;2023-01-16T10:41:15;6.90;99.90
16315;DHT22;8266;52.150;4.768;2023-01-16T10:44:02;6.90;99.90
16315;DHT22;8266;52.150;4.768;2023-01-16T10:46:49;6.90;99.90
16315;DHT22;8266;52.150;4.768;2023-01-16T10:49:34;7.00;99.90
16315;DHT22;8266;52.150;4.768;2023-01-16T10:52:03;7.00;99.90
16315;DHT22;8266;52.150;4.768;2023-01-16T10:54:31;6.90;99.90
16315;DHT22;8266;52.150;4.768;2023-01-16T10:56:58;6.90;99.90
16315;DHT22;8266;52.150;4.768;2023-01-16T10:59:30;6.90;99.90
16315;DHT22;8266;52.150;4.768;2023-01-16T11:02:08;6.90;99.90
16315;DHT22;8266;52.150;4.768;2023-01-16T11:04:39;6.90;99.90
16315;DHT22;8266;52.150;4.768;2023-01-16T11:07:15;6.90;99.90
16315;DHT22;8266;52.150;4.768;2023-01-16T11:09:43;7.00;99.90
16315;DHT22;8266;52.150;4.768;2023-01-16T11:12:21;7.00;99.90
16315;DHT22;8266;52.150;4.768;2023-01-16T11:15:14;7.00;99.90
16315;DHT22;8266;52.150;4.768;2023-01-16T11:18:00;7.00;99.90
16315;DHT22;8266;52.150;4.768;2023-01-16T11:20:45;7.00;99.90
16315;DHT22;8266;52.150;4.768;2023-01-16T11:23:18;7.00;99.90
16315;DHT22;8266;52.150;4.768;2023-01-16T11:25:48;7.10;99.90
16315;DHT22;8266;52.150;4.768;2023-01-16T11:28:20;7.10;99.90
16315;DHT22;8266;52.150;4.768;2023-01-16T11:30:51;7.10;99.90
16315;DHT22;8266;52.150;4.768;2023-01-16T11:33:22;7.10;99.90
16315;DHT22;8266;52.150;4.768;2023-01-16T11:35:52;7.10;99.90
16315;DHT22;8266;52.150;4.768;2023-01-16T11:38:21;7.10;99.90
16315;DHT22;8266;52.150;4.768;2023-01-16T11:40:50;7.10;99.90
16315;DHT22;8266;52.150;4.768;2023-01-16T11:43:23;7.10;99.90
16315;DHT22;8266;52.150;4.768;2023-01-16T11:46:32;7.20;99.90
16315;DHT22;8266;52.150;4.768;2023-01-16T11:49:03;7.20;99.90
16315;DHT22;8266;52.150;4.768;2023-01-16T11:51:32;7.20;99.90
16315;DHT22;8266;52.150;4.768;2023-01-16T11:54:00;7.30;99.90
16315;DHT22;8266;52.150;4.768;2023-01-16T11:56:50;7.30;99.90
16315;DHT22;8266;52.150;4.768;2023-01-16T11:59:56;7.30;99.90
16315;DHT22;8266;52.150;4.768;2023-01-16T12:02:48;7.40;99.90
16315;DHT22;8266;52.150;4.768;2023-01-16T12:05:25;7.40;99.90
16315;DHT22;8266;52.150;4.768;2023-01-16T12:08:37;7.40;99.90
16315;DHT22;8266;52.150;4.768;2023-01-16T12:11:08;7.50;99.90
16315;DHT22;8266;52.150;4.768;2023-01-16T12:13:41;7.50;99.90
16315;DHT22;8266;52.150;4.768;2023-01-16T12:16:37;7.60;99.90
16315;DHT22;8266;52.150;4.768;2023-01-16T12:19:35;7.60;99.90
16315;DHT22;8266;52.150;4.768;2023-01-16T12:22:15;7.70;99.90
16315;DHT22;8266;52.150;4.768;2023-01-16T12:24:50;7.70;99.90
16315;DHT22;8266;52.150;4.768;2023-01-16T12:27:33;7.80;99.90
16315;DHT22;8266;52.150;4.768;2023-01-16T12:30:06;7.80;99.90
16315;DHT22;8266;52.150;4.768;2023-01-16T12:32:48;7.90;99.90
16315;DHT22;8266;52.150;4.768;2023-01-16T12:35:26;7.90;99.90
16315;DHT22;8266;52.150;4.768;2023-01-16T12:38:12;8.00;99.90
16315;DHT22;8266;52.150;4.768;2023-01-16T12:40:57;8.00;99.90
16315;DHT22;8266;52.150;4.768;2023-01-16T12:44:08;8.10;99.90
16315;DHT22;8266;52.150;4.768;2023-01-16T12:46:41;8.10;99.90
16315;DHT22;8266;52.150;4.768;2023-01-16T12:49:27;8.10;99.90
16315;DHT22;8266;52.150;4.768;2023-01-16T12:52:06;8.10;99.90
16315;DHT22;8266;52.150;4.768;2023-01-16T12:54:49;8.20;99.90
16315;DHT22;8266;52.150;4.768;2023-01-16T12:57:33;8.20;99.90
16315;DHT22;8266;52.150;4.768;2023-01-16T13:00:08;8.10;99.90
16315;DHT22;8266;52.150;4.768;2023-01-16T13:02:41;8.20;99.90
16315;DHT22;8266;52.150;4.768;2023-01-16T13:05:12;8.10;99.90
16315;DHT22;8266;52.150;4.768;2023-01-16T13:07:47;8.20;99.90
16315;DHT22;8266;52.150;4.768;2023-01-16T13:10:21;8.10;99.90
16315;DHT22;8266;52.150;4.768;2023-01-16T13:13:12;8.10;99.90
16315;DHT22;8266;52.150;4.768;2023-01-16T13:16:03;8.10;99.90
16315;DHT22;8266;52.150;4.768;2023-01-16T13:18:37;8.10;99.90
16315;DHT22;8266;52.150;4.768;2023-01-16T13:21:08;8.10;99.90
16315;DHT22;8266;52.150;4.768;2023-01-16T13:23:40;8.10;99.90
16315;DHT22;8266;52.150;4.768;2023-01-16T13:26:13;8.10;99.90
16315;DHT22;8266;52.150;4.768;2023-01-16T13:28:45;8.10;99.90
16315;DHT22;8266;52.150;4.768;2023-01-16T13:31:21;8.10;99.90
16315;DHT22;8266;52.150;4.768;2023-01-16T13:33:54;8.10;99.90
16315;DHT22;8266;52.150;4.768;2023-01-16T13:42:22;8.10;99.90
16315;DHT22;8266;52.150;4.768;2023-01-16T13:44:54;8.10;99.90
16315;DHT22;8266;52.150;4.768;2023-01-16T13:47:39;8.20;99.90
16315;DHT22;8266;52.150;4.768;2023-01-16T13:50:16;8.20;99.90
16315;DHT22;8266;52.150;4.768;2023-01-16T13:52:45;8.20;99.90
16315;DHT22;8266;52.150;4.768;2023-01-16T13:55:24;8.20;99.90
16315;DHT22;8266;52.150;4.768;2023-01-16T13:57:56;8.20;99.90
16315;DHT22;8266;52.150;4.768;2023-01-16T14:00:23;8.20;99.90
16315;DHT22;8266;52.150;4.768;2023-01-16T14:03:09;8.20;99.90
16315;DHT22;8266;52.150;4.768;2023-01-16T14:05:45;8.20;99.90
16315;DHT22;8266;52.150;4.768;2023-01-16T14:08:28;8.30;99.90
16315;DHT22;8266;52.150;4.768;2023-01-16T14:11:56;8.40;99.90
16315;DHT22;8266;52.150;4.768;2023-01-16T14:14:49;8.40;99.90
16315;DHT22;8266;52.150;4.768;2023-01-16T14:18:01;8.40;99.90
16315;DHT22;8266;52.150;4.768;2023-01-16T14:20:40;8.50;99.90
16315;DHT22;8266;52.150;4.768;2023-01-16T14:23:16;8.50;99.90
16315;DHT22;8266;52.150;4.768;2023-01-16T14:26:01;8.50;99.90
16315;DHT22;8266;52.150;4.768;2023-01-16T14:28:29;8.60;99.90
16315;DHT22;8266;52.150;4.768;2023-01-16T14:30:59;8.60;99.90
16315;DHT22;8266;52.150;4.768;2023-01-16T14:33:26;8.60;99.90
16315;DHT22;8266;52.150;4.768;2023-01-16T14:35:56;8.60;99.90
16315;DHT22;8266;52.150;4.768;2023-01-16T14:38:28;8.60;99.90
16315;DHT22;8266;52.150;4.768;2023-01-16T14:41:02;8.60;99.90
16315;DHT22;8266;52.150;4.768;2023-01-16T14:44:11;8.60;99.90
16315;DHT22;8266;52.150;4.768;2023-01-16T14:47:09;8.60;99.90
16315;DHT22;8266;52.150;4.768;2023-01-16T14:50:14;8.60;99.90
16315;DHT22;8266;52.150;4.768;2023-01-16T14:53:13;8.60;99.90
16315;DHT22;8266;52.150;4.768;2023-01-16T14:56:03;8.60;99.90
16315;DHT22;8266;52.150;4.768;2023-01-16T14:58:35;8.60;99.90
16315;DHT22;8266;52.150;4.768;2023-01-16T15:01:05;8.60;99.90
16315;DHT22;8266;52.150;4.768;2023-01-16T15:03:55;8.60;99.90
16315;DHT22;8266;52.150;4.768;2023-01-16T15:06:22;8.60;99.90
16315;DHT22;8266;52.150;4.768;2023-01-16T15:08:50;8.60;99.90
16315;DHT22;8266;52.150;4.768;2023-01-16T15:11:24;8.70;99.90
16315;DHT22;8266;52.150;4.768;2023-01-16T15:14:12;8.70;99.90
16315;DHT22;8266;52.150;4.768;2023-01-16T15:17:06;8.70;99.90
16315;DHT22;8266;52.150;4.768;2023-01-16T15:19:59;8.70;99.90
16315;DHT22;8266;52.150;4.768;2023-01-16T15:22:46;8.70;99.90
16315;DHT22;8266;52.150;4.768;2023-01-16T15:25:21;8.70;99.90
16315;DHT22;8266;52.150;4.768;2023-01-16T15:27:54;8.70;99.90
16315;DHT22;8266;52.150;4.768;2023-01-16T15:30:25;8.70;99.90
16315;DHT22;8266;52.150;4.768;2023-01-16T15:32:54;8.70;99.90
16315;DHT22;8266;52.150;4.768;2023-01-16T15:35:43;8.70;99.90
16315;DHT22;8266;52.150;4.768;2023-01-16T15:38:11;8.70;99.90
16315;DHT22;8266;52.150;4.768;2023-01-16T15:40:38;8.70;99.90
16315;DHT22;8266;52.150;4.768;2023-01-16T15:43:13;8.70;99.90
16315;DHT22;8266;52.150;4.768;2023-01-16T15:46:05;8.70;99.90
16315;DHT22;8266;52.150;4.768;2023-01-16T15:49:07;8.60;99.90
16315;DHT22;8266;52.150;4.768;2023-01-16T15:51:51;8.50;99.90
16315;DHT22;8266;52.150;4.768;2023-01-16T15:54:18;8.50;99.90
16315;DHT22;8266;52.150;4.768;2023-01-16T15:56:47;8.40;99.90
16315;DHT22;8266;52.150;4.768;2023-01-16T15:59:23;8.30;99.90
16315;DHT22;8266;52.150;4.768;2023-01-16T16:01:51;8.20;99.90
16315;DHT22;8266;52.150;4.768;2023-01-16T16:04:19;8.10;99.90
16315;DHT22;8266;52.150;4.768;2023-01-16T16:06:47;8.00;99.90
16315;DHT22;8266;52.150;4.768;2023-01-16T16:09:21;8.00;99.90
16315;DHT22;8266;52.150;4.768;2023-01-16T16:11:49;7.80;99.90
16315;DHT22;8266;52.150;4.768;2023-01-16T16:14:21;7.80;99.90
16315;DHT22;8266;52.150;4.768;2023-01-16T16:17:19;7.70;99.90
16315;DHT22;8266;52.150;4.768;2023-01-16T16:20:26;7.60;99.90
16315;DHT22;8266;52.150;4.768;2023-01-16T16:22:56;7.60;99.90
16315;DHT22;8266;52.150;4.768;2023-01-16T16:25:28;7.50;99.90
16315;DHT22;8266;52.150;4.768;2023-01-16T16:27:57;7.40;99.90
16315;DHT22;8266;52.150;4.768;2023-01-16T16:30:25;7.40;99.90
16315;DHT22;8266;52.150;4.768;2023-01-16T16:32:53;7.40;99.90
16315;DHT22;8266;52.150;4.768;2023-01-16T16:35:25;7.30;99.90
16315;DHT22;8266;52.150;4.768;2023-01-16T16:37:53;7.30;99.90
16315;DHT22;8266;52.150;4.768;2023-01-16T16:40:21;7.30;99.90
16315;DHT22;8266;52.150;4.768;2023-01-16T16:42:54;7.20;99.90
16315;DHT22;8266;52.150;4.768;2023-01-16T16:45:26;7.20;99.90
16315;DHT22;8266;52.150;4.768;2023-01-16T16:48:24;7.20;99.90
16315;DHT22;8266;52.150;4.768;2023-01-16T16:51:17;7.20;99.90
16315;DHT22;8266;52.150;4.768;2023-01-16T16:53:45;7.20;99.90
16315;DHT22;8266;52.150;4.768;2023-01-16T16:56:14;7.10;99.90